sensor_id;sensor_type;location;lat;lon;timestamp;pressure;altitude;pressure_sealevel;temperature;humidity
59375;BME280;45172;55.006;73.460;2022-12-07T00:02:21;102988.63;;;-16.63;85.73
59375;BME280;45172;55.006;73.460;2022-12-07T00:04:54;103004.09;;;-16.61;85.91
59375;BME280;45172;55.006;73.460;2022-12-07T00:07:20;103006.66;;;-16.61;85.90
59375;BME280;45172;55.006;73.460;2022-12-07T00:09:56;103007.31;;;-16.62;85.84
59375;BME280;45172;55.006;73.460;2022-12-07T00:12:28;103011.88;;;-16.66;85.91
59375;BME280;45172;55.006;73.460;2022-12-07T00:14:53;103013.91;;;-16.69;85.92
59375;BME280;45172;55.006;73.460;2022-12-07T00:17:21;102960.19;;;-16.97;85.84
59375;BME280;45172;55.006;73.460;2022-12-07T00:19:47;103019.22;;;-16.67;85.82
59375;BME280;45172;55.006;73.460;2022-12-07T00:22:13;102973.44;;;-16.88;85.72
59375;BME280;45172;55.006;73.460;2022-12-07T00:24:40;103009.84;;;-16.62;85.72
59375;BME280;45172;55.006;73.460;2022-12-07T00:27:06;103020.00;;;-16.62;85.98
59375;BME280;45172;55.006;73.460;2022-12-07T00:29:32;103022.97;;;-16.65;85.95
59375;BME280;45172;55.006;73.460;2022-12-07T00:31:58;103014.94;;;-16.62;85.80
59375;BME280;45172;55.006;73.460;2022-12-07T00:34:24;103014.25;;;-16.61;85.97
59375;BME280;45172;55.006;73.460;2022-12-07T00:36:50;103009.19;;;-16.61;85.66
59375;BME280;45172;55.006;73.460;2022-12-07T00:39:25;103015.94;;;-16.56;86.25
59375;BME280;45172;55.006;73.460;2022-12-07T00:41:51;103010.78;;;-16.62;85.81
59375;BME280;45172;55.006;73.460;2022-12-07T00:44:17;103014.34;;;-16.56;86.15
59375;BME280;45172;55.006;73.460;2022-12-07T00:46:44;103022.91;;;-16.55;85.82
59375;BME280;45172;55.006;73.460;2022-12-07T00:49:11;102986.81;;;-16.74;86.12
59375;BME280;45172;55.006;73.460;2022-12-07T00:51:37;103012.28;;;-16.53;85.92
59375;BME280;45172;55.006;73.460;2022-12-07T00:54:03;103023.19;;;-16.48;85.89
59375;BME280;45172;55.006;73.460;2022-12-07T00:56:29;103023.47;;;-16.46;85.81
59375;BME280;45172;55.006;73.460;2022-12-07T00:58:58;103018.47;;;-16.41;86.24
59375;BME280;45172;55.006;73.460;2022-12-07T01:01:26;103010.84;;;-16.41;85.81
59375;BME280;45172;55.006;73.460;2022-12-07T01:03:53;103007.41;;;-16.41;85.94
59375;BME280;45172;55.006;73.460;2022-12-07T01:06:20;103007.41;;;-16.41;85.75
59375;BME280;45172;55.006;73.460;2022-12-07T01:08:48;102988.00;;;-16.56;85.30
59375;BME280;45172;55.006;73.460;2022-12-07T01:11:22;103004.34;;;-16.44;85.69
59375;BME280;45172;55.006;73.460;2022-12-07T01:13:50;103010.34;;;-16.44;85.70
59375;BME280;45172;55.006;73.460;2022-12-07T01:16:16;103012.41;;;-16.47;85.63
59375;BME280;45172;55.006;73.460;2022-12-07T01:18:46;102996.06;;;-16.59;85.12
59375;BME280;45172;55.006;73.460;2022-12-07T01:21:15;103002.31;;;-16.57;85.67
59375;BME280;45172;55.006;73.460;2022-12-07T01:23:42;102990.06;;;-16.59;85.52
59375;BME280;45172;55.006;73.460;2022-12-07T01:26:14;103005.88;;;-16.50;85.58
59375;BME280;45172;55.006;73.460;2022-12-07T01:28:41;102999.78;;;-16.57;85.39
59375;BME280;45172;55.006;73.460;2022-12-07T01:31:10;103000.06;;;-16.55;85.26
59375;BME280;45172;55.006;73.460;2022-12-07T01:33:41;102997.75;;;-16.54;85.53
59375;BME280;45172;55.006;73.460;2022-12-07T01:36:08;102990.66;;;-16.50;85.30
59375;BME280;45172;55.006;73.460;2022-12-07T01:38:38;102981.28;;;-16.61;85.39
59375;BME280;45172;55.006;73.460;2022-12-07T01:41:04;102988.97;;;-16.56;85.66
59375;BME280;45172;55.006;73.460;2022-12-07T01:43:32;102988.00;;;-16.56;85.43
59375;BME280;45172;55.006;73.460;2022-12-07T01:46:01;102986.00;;;-16.53;85.31
59375;BME280;45172;55.006;73.460;2022-12-07T01:48:36;102980.16;;;-16.58;84.82
59375;BME280;45172;55.006;73.460;2022-12-07T01:51:09;102989.63;;;-16.57;85.04
59375;BME280;45172;55.006;73.460;2022-12-07T01:53:38;102948.97;;;-16.78;84.72
59375;BME280;45172;55.006;73.460;2022-12-07T01:56:07;102982.19;;;-16.61;84.28
59375;BME280;45172;55.006;73.460;2022-12-07T01:58:38;102956.91;;;-16.86;84.76
59375;BME280;45172;55.006;73.460;2022-12-07T02:01:04;102959.69;;;-16.85;84.21
59375;BME280;45172;55.006;73.460;2022-12-07T02:03:35;102992.25;;;-16.67;84.33
59375;BME280;45172;55.006;73.460;2022-12-07T02:06:05;102995.19;;;-16.69;84.28
59375;BME280;45172;55.006;73.460;2022-12-07T02:08:33;102990.53;;;-16.72;83.99
59375;BME280;45172;55.006;73.460;2022-12-07T02:11:08;102944.03;;;-16.98;84.26
59375;BME280;45172;55.006;73.460;2022-12-07T02:13:36;102981.75;;;-16.74;84.47
59375;BME280;45172;55.006;73.460;2022-12-07T02:16:28;102952.66;;;-16.91;84.15
59375;BME280;45172;55.006;73.460;2022-12-07T02:24:57;102984.81;;;-16.71;83.78
59375;BME280;45172;55.006;73.460;2022-12-07T02:27:56;102995.63;;;-16.72;83.89
59375;BME280;45172;55.006;73.460;2022-12-07T02:30:28;102987.25;;;-16.76;83.75
59375;BME280;45172;55.006;73.460;2022-12-07T02:33:16;102984.47;;;-16.78;83.46
59375;BME280;45172;55.006;73.460;2022-12-07T02:35:48;102979.81;;;-16.81;83.35
59375;BME280;45172;55.006;73.460;2022-12-07T02:38:37;102991.41;;;-16.77;83.36
59375;BME280;45172;55.006;73.460;2022-12-07T02:41:16;102992.22;;;-16.82;83.05
59375;BME280;45172;55.006;73.460;2022-12-07T02:44:09;102954.94;;;-17.09;83.36
59375;BME280;45172;55.006;73.460;2022-12-07T02:46:42;102990.53;;;-16.87;83.83
59375;BME280;45172;55.006;73.460;2022-12-07T02:49:22;102970.03;;;-17.04;83.36
59375;BME280;45172;55.006;73.460;2022-12-07T02:51:49;102989.63;;;-16.88;83.17
59375;BME280;45172;55.006;73.460;2022-12-07T02:54:18;102993.25;;;-16.91;83.57
59375;BME280;45172;55.006;73.460;2022-12-07T02:57:32;102986.72;;;-16.95;83.33
59375;BME280;45172;55.006;73.460;2022-12-07T03:03:03;103006.19;;;-16.90;83.97
59375;BME280;45172;55.006;73.460;2022-12-07T03:05:55;103001.34;;;-16.88;83.72
59375;BME280;45172;55.006;73.460;2022-12-07T03:08:56;103008.28;;;-16.87;83.46
59375;BME280;45172;55.006;73.460;2022-12-07T03:11:40;102993.75;;;-17.04;83.07
59375;BME280;45172;55.006;73.460;2022-12-07T03:14:15;103007.00;;;-16.95;82.99
59375;BME280;45172;55.006;73.460;2022-12-07T03:16:58;103011.56;;;-16.98;82.78
59375;BME280;45172;55.006;73.460;2022-12-07T03:19:37;102991.94;;;-17.15;82.65
59375;BME280;45172;55.006;73.460;2022-12-07T03:22:08;103020.97;;;-17.03;82.24
59375;BME280;45172;55.006;73.460;2022-12-07T03:24:41;103010.72;;;-17.09;82.09
59375;BME280;45172;55.006;73.460;2022-12-07T03:30:00;103013.81;;;-17.05;82.05
59375;BME280;45172;55.006;73.460;2022-12-07T03:32:42;103001.94;;;-17.11;81.53
59375;BME280;45172;55.006;73.460;2022-12-07T03:35:17;103012.59;;;-17.08;82.16
59375;BME280;45172;55.006;73.460;2022-12-07T03:37:59;103007.69;;;-17.12;81.76
59375;BME280;45172;55.006;73.460;2022-12-07T03:42:56;102991.59;;;-17.22;81.35
59375;BME280;45172;55.006;73.460;2022-12-07T03:45:38;103004.31;;;-17.07;81.32
59375;BME280;45172;55.006;73.460;2022-12-07T03:48:24;103000.31;;;-17.10;81.56
59375;BME280;45172;55.006;73.460;2022-12-07T03:51:01;103013.63;;;-17.01;81.01
59375;BME280;45172;55.006;73.460;2022-12-07T03:53:40;103012.69;;;-17.02;81.42
59375;BME280;45172;55.006;73.460;2022-12-07T03:56:08;102982.47;;;-17.16;81.83
59375;BME280;45172;55.006;73.460;2022-12-07T03:58:36;102986.31;;;-17.08;81.77
59375;BME280;45172;55.006;73.460;2022-12-07T04:01:02;103007.09;;;-16.89;81.79
59375;BME280;45172;55.006;73.460;2022-12-07T04:03:28;102984.13;;;-17.01;81.72
59375;BME280;45172;55.006;73.460;2022-12-07T04:05:54;102989.94;;;-16.96;81.86
59375;BME280;45172;55.006;73.460;2022-12-07T04:08:21;103012.13;;;-16.80;82.36
59375;BME280;45172;55.006;73.460;2022-12-07T04:10:47;103019.03;;;-16.78;82.12
59375;BME280;45172;55.006;73.460;2022-12-07T04:13:18;103015.81;;;-16.77;81.95
59375;BME280;45172;55.006;73.460;2022-12-07T04:15:44;103000.94;;;-16.86;82.44
59375;BME280;45172;55.006;73.460;2022-12-07T04:18:10;103004.91;;;-16.82;82.65
59375;BME280;45172;55.006;73.460;2022-12-07T04:20:36;103018.91;;;-16.74;82.61
59375;BME280;45172;55.006;73.460;2022-12-07T04:23:02;103018.72;;;-16.70;82.58
59375;BME280;45172;55.006;73.460;2022-12-07T04:25:28;103015.59;;;-16.63;82.55
59375;BME280;45172;55.006;73.460;2022-12-07T04:27:54;103022.22;;;-16.54;82.82
59375;BME280;45172;55.006;73.460;2022-12-07T04:30:20;103008.44;;;-16.50;82.72
59375;BME280;45172;55.006;73.460;2022-12-07T04:32:46;102974.00;;;-16.54;82.64
59375;BME280;45172;55.006;73.460;2022-12-07T04:35:13;103019.31;;;-16.15;82.87
59375;BME280;45172;55.006;73.460;2022-12-07T04:37:38;103014.91;;;-16.00;82.62
59375;BME280;45172;55.006;73.460;2022-12-07T04:40:07;103004.16;;;-15.88;82.45
59375;BME280;45172;55.006;73.460;2022-12-07T04:42:34;103005.97;;;-15.71;82.68
59375;BME280;45172;55.006;73.460;2022-12-07T04:45:00;102992.47;;;-15.60;82.57
59375;BME280;45172;55.006;73.460;2022-12-07T04:47:26;103004.94;;;-15.40;82.43
59375;BME280;45172;55.006;73.460;2022-12-07T04:49:52;102981.19;;;-15.35;82.16
59375;BME280;45172;55.006;73.460;2022-12-07T04:52:18;102985.47;;;-15.24;82.35
59375;BME280;45172;55.006;73.460;2022-12-07T04:54:54;102960.53;;;-15.21;82.10
59375;BME280;45172;55.006;73.460;2022-12-07T04:57:20;102999.13;;;-14.97;80.91
59375;BME280;45172;55.006;73.460;2022-12-07T04:59:56;102981.94;;;-15.04;80.50
59375;BME280;45172;55.006;73.460;2022-12-07T05:02:22;102997.63;;;-14.85;80.76
59375;BME280;45172;55.006;73.460;2022-12-07T05:04:48;102968.09;;;-15.00;79.96
59375;BME280;45172;55.006;73.460;2022-12-07T05:07:18;102997.91;;;-14.72;80.57
59375;BME280;45172;55.006;73.460;2022-12-07T05:09:44;103001.22;;;-14.62;80.17
59375;BME280;45172;55.006;73.460;2022-12-07T05:12:11;103008.94;;;-14.50;80.91
59375;BME280;45172;55.006;73.460;2022-12-07T05:14:37;103004.06;;;-14.49;79.48
59375;BME280;45172;55.006;73.460;2022-12-07T05:17:03;103016.19;;;-14.42;79.93
59375;BME280;45172;55.006;73.460;2022-12-07T05:19:29;103013.66;;;-14.36;79.75
59375;BME280;45172;55.006;73.460;2022-12-07T05:21:55;103004.88;;;-14.38;79.46
59375;BME280;45172;55.006;73.460;2022-12-07T05:24:21;103016.91;;;-14.37;79.55
59375;BME280;45172;55.006;73.460;2022-12-07T05:26:47;103009.00;;;-14.39;79.16
59375;BME280;45172;55.006;73.460;2022-12-07T05:29:15;103011.28;;;-14.46;78.44
59375;BME280;45172;55.006;73.460;2022-12-07T05:31:42;103012.44;;;-14.44;79.08
59375;BME280;45172;55.006;73.460;2022-12-07T05:34:10;103003.63;;;-14.46;78.44
59375;BME280;45172;55.006;73.460;2022-12-07T05:36:41;103005.03;;;-14.48;78.91
59375;BME280;45172;55.006;73.460;2022-12-07T05:39:07;103007.31;;;-14.50;78.61
59375;BME280;45172;55.006;73.460;2022-12-07T05:41:33;102996.84;;;-14.57;78.63
59375;BME280;45172;55.006;73.460;2022-12-07T05:52:47;102975.00;;;-14.78;77.97
59375;BME280;45172;55.006;73.460;2022-12-07T05:59:33;102979.66;;;-14.69;77.96
59375;BME280;45172;55.006;73.460;2022-12-07T06:06:18;102968.09;;;-14.67;77.62
59375;BME280;45172;55.006;73.460;2022-12-07T06:13:03;102961.59;;;-14.77;77.01
59375;BME280;45172;55.006;73.460;2022-12-07T06:15:36;102965.72;;;-14.72;77.71
59375;BME280;45172;55.006;73.460;2022-12-07T06:18:02;102959.31;;;-14.64;77.57
59375;BME280;45172;55.006;73.460;2022-12-07T06:20:28;102945.44;;;-14.66;77.77
59375;BME280;45172;55.006;73.460;2022-12-07T06:22:54;102944.59;;;-14.55;78.03
59375;BME280;45172;55.006;73.460;2022-12-07T06:25:20;102933.72;;;-14.48;78.34
59375;BME280;45172;55.006;73.460;2022-12-07T06:27:46;102950.03;;;-14.31;77.70
59375;BME280;45172;55.006;73.460;2022-12-07T06:30:12;102912.00;;;-14.40;77.58
59375;BME280;45172;55.006;73.460;2022-12-07T06:32:44;102908.88;;;-14.61;76.96
59375;BME280;45172;55.006;73.460;2022-12-07T06:35:11;102946.06;;;-14.34;76.75
59375;BME280;45172;55.006;73.460;2022-12-07T06:37:41;102943.06;;;-14.37;77.28
59375;BME280;45172;55.006;73.460;2022-12-07T06:40:08;102918.19;;;-14.55;76.87
59375;BME280;45172;55.006;73.460;2022-12-07T06:42:43;102942.78;;;-14.45;77.07
59375;BME280;45172;55.006;73.460;2022-12-07T06:49:27;102934.47;;;-14.38;77.05
59375;BME280;45172;55.006;73.460;2022-12-07T07:01:15;102946.84;;;-14.24;75.65
59375;BME280;45172;55.006;73.460;2022-12-07T07:07:59;102948.16;;;-14.70;75.81
59375;BME280;45172;55.006;73.460;2022-12-07T07:14:44;102903.13;;;-14.98;76.06
59375;BME280;45172;55.006;73.460;2022-12-07T07:21:27;102945.81;;;-15.12;76.29
59375;BME280;45172;55.006;73.460;2022-12-07T07:23:54;102939.69;;;-15.24;76.59
59375;BME280;45172;55.006;73.460;2022-12-07T07:26:20;102931.81;;;-15.26;76.77
59375;BME280;45172;55.006;73.460;2022-12-07T07:28:46;102941.56;;;-15.23;77.27
59375;BME280;45172;55.006;73.460;2022-12-07T07:31:12;102942.00;;;-15.26;77.06
59375;BME280;45172;55.006;73.460;2022-12-07T07:33:48;102933.63;;;-15.31;76.86
59375;BME280;45172;55.006;73.460;2022-12-07T07:36:25;102931.09;;;-15.31;76.65
59375;BME280;45172;55.006;73.460;2022-12-07T07:38:51;102902.78;;;-15.44;77.29
59375;BME280;45172;55.006;73.460;2022-12-07T07:41:17;102915.13;;;-15.30;76.65
59375;BME280;45172;55.006;73.460;2022-12-07T07:52:30;102918.78;;;-15.06;76.59
59375;BME280;45172;55.006;73.460;2022-12-07T07:54:56;102878.59;;;-15.30;76.83
59375;BME280;45172;55.006;73.460;2022-12-07T08:05:28;102904.44;;;-15.11;77.01
59375;BME280;45172;55.006;73.460;2022-12-07T08:12:13;102913.91;;;-15.10;77.76
59375;BME280;45172;55.006;73.460;2022-12-07T08:18:57;102916.19;;;-15.12;77.56
59375;BME280;45172;55.006;73.460;2022-12-07T08:25:46;102894.69;;;-15.14;77.41
59375;BME280;45172;55.006;73.460;2022-12-07T08:32:31;102910.50;;;-15.05;77.28
59375;BME280;45172;55.006;73.460;2022-12-07T08:39:15;102912.84;;;-14.95;77.45
59375;BME280;45172;55.006;73.460;2022-12-07T08:42:06;102909.16;;;-14.97;77.61
59375;BME280;45172;55.006;73.460;2022-12-07T08:44:37;102899.84;;;-15.03;77.75
59375;BME280;45172;55.006;73.460;2022-12-07T08:47:06;102910.56;;;-14.94;78.02
59375;BME280;45172;55.006;73.460;2022-12-07T08:49:37;102906.84;;;-14.96;77.33
59375;BME280;45172;55.006;73.460;2022-12-07T08:52:05;102898.69;;;-15.05;77.31
59375;BME280;45172;55.006;73.460;2022-12-07T08:54:33;102893.56;;;-15.10;77.53
59375;BME280;45172;55.006;73.460;2022-12-07T08:57:01;102896.13;;;-15.05;78.05
59375;BME280;45172;55.006;73.460;2022-12-07T08:59:28;102897.56;;;-15.01;78.17
59375;BME280;45172;55.006;73.460;2022-12-07T09:01:54;102885.06;;;-15.05;78.02
59375;BME280;45172;55.006;73.460;2022-12-07T09:04:20;102891.50;;;-15.07;77.85
59375;BME280;45172;55.006;73.460;2022-12-07T09:06:48;102893.34;;;-15.06;78.53
59375;BME280;45172;55.006;73.460;2022-12-07T09:09:15;102894.03;;;-15.07;78.24
59375;BME280;45172;55.006;73.460;2022-12-07T09:11:45;102886.63;;;-15.11;78.14
59375;BME280;45172;55.006;73.460;2022-12-07T09:14:12;102872.50;;;-15.15;78.12
59375;BME280;45172;55.006;73.460;2022-12-07T09:16:39;102896.41;;;-15.03;78.76
59375;BME280;45172;55.006;73.460;2022-12-07T09:19:10;102884.56;;;-15.08;78.17
59375;BME280;45172;55.006;73.460;2022-12-07T09:21:36;102889.59;;;-15.14;78.25
59375;BME280;45172;55.006;73.460;2022-12-07T09:24:05;102885.81;;;-15.22;78.09
59375;BME280;45172;55.006;73.460;2022-12-07T09:26:32;102867.69;;;-15.35;78.71
59375;BME280;45172;55.006;73.460;2022-12-07T09:29:07;102885.81;;;-15.22;78.53
59375;BME280;45172;55.006;73.460;2022-12-07T09:31:36;102891.59;;;-15.23;77.86
59375;BME280;45172;55.006;73.460;2022-12-07T09:34:02;102893.22;;;-15.23;78.02
59375;BME280;45172;55.006;73.460;2022-12-07T09:36:28;102885.72;;;-15.39;77.72
59375;BME280;45172;55.006;73.460;2022-12-07T09:39:02;102891.91;;;-15.43;76.48
59375;BME280;45172;55.006;73.460;2022-12-07T09:41:30;102892.38;;;-15.39;77.30
59375;BME280;45172;55.006;73.460;2022-12-07T09:44:05;102899.03;;;-15.46;76.43
59375;BME280;45172;55.006;73.460;2022-12-07T09:46:36;102897.44;;;-15.45;76.53
59375;BME280;45172;55.006;73.460;2022-12-07T09:49:05;102889.84;;;-15.39;76.89
59375;BME280;45172;55.006;73.460;2022-12-07T09:51:36;102847.09;;;-15.69;77.00
59375;BME280;45172;55.006;73.460;2022-12-07T09:54:02;102870.25;;;-15.62;76.93
59375;BME280;45172;55.006;73.460;2022-12-07T09:56:29;102877.06;;;-15.51;77.33
59375;BME280;45172;55.006;73.460;2022-12-07T09:59:00;102870.78;;;-15.53;77.83
59375;BME280;45172;55.006;73.460;2022-12-07T10:01:30;102891.22;;;-15.42;77.46
59375;BME280;45172;55.006;73.460;2022-12-07T10:04:14;102882.78;;;-15.52;76.36
59375;BME280;45172;55.006;73.460;2022-12-07T10:06:41;102890.81;;;-15.60;75.36
59375;BME280;45172;55.006;73.460;2022-12-07T10:09:15;102891.06;;;-15.59;75.67
59375;BME280;45172;55.006;73.460;2022-12-07T10:12:04;102885.00;;;-15.65;75.45
59375;BME280;45172;55.006;73.460;2022-12-07T10:14:33;102883.81;;;-15.67;75.42
59375;BME280;45172;55.006;73.460;2022-12-07T10:17:00;102882.88;;;-15.67;74.97
59375;BME280;45172;55.006;73.460;2022-12-07T10:19:30;102877.16;;;-15.66;75.43
59375;BME280;45172;55.006;73.460;2022-12-07T10:22:12;102888.44;;;-15.70;74.43
59375;BME280;45172;55.006;73.460;2022-12-07T10:24:40;102890.72;;;-15.72;74.31
59375;BME280;45172;55.006;73.460;2022-12-07T10:27:26;102886.31;;;-15.73;73.50
59375;BME280;45172;55.006;73.460;2022-12-07T10:29:53;102879.56;;;-15.78;74.09
59375;BME280;45172;55.006;73.460;2022-12-07T10:34:45;102881.19;;;-15.78;73.82
59375;BME280;45172;55.006;73.460;2022-12-07T10:37:18;102888.13;;;-15.77;73.58
59375;BME280;45172;55.006;73.460;2022-12-07T10:42:28;102844.03;;;-15.99;74.56
59375;BME280;45172;55.006;73.460;2022-12-07T10:45:23;102884.19;;;-15.75;72.82
59375;BME280;45172;55.006;73.460;2022-12-07T11:02:02;102879.41;;;-15.95;74.02
59375;BME280;45172;55.006;73.460;2022-12-07T11:04:48;102875.44;;;-15.99;73.58
59375;BME280;45172;55.006;73.460;2022-12-07T11:16:00;102870.03;;;-16.06;74.04
59375;BME280;45172;55.006;73.460;2022-12-07T11:24:19;102862.78;;;-16.14;73.95
59375;BME280;45172;55.006;73.460;2022-12-07T11:27:04;102862.38;;;-16.12;74.54
59375;BME280;45172;55.006;73.460;2022-12-07T11:32:37;102863.06;;;-16.13;74.29
59375;BME280;45172;55.006;73.460;2022-12-07T11:37:43;102859.41;;;-16.09;74.79
59375;BME280;45172;55.006;73.460;2022-12-07T11:40:35;102864.06;;;-16.06;74.55
59375;BME280;45172;55.006;73.460;2022-12-07T11:45:44;102867.50;;;-16.06;74.54
59375;BME280;45172;55.006;73.460;2022-12-07T11:48:22;102865.66;;;-16.07;74.21
59375;BME280;45172;55.006;73.460;2022-12-07T11:50:56;102864.69;;;-16.13;74.14
59375;BME280;45172;55.006;73.460;2022-12-07T11:53:27;102845.34;;;-16.28;74.13
59375;BME280;45172;55.006;73.460;2022-12-07T11:58:48;102857.41;;;-16.21;74.93
59375;BME280;45172;55.006;73.460;2022-12-07T12:04:25;102845.75;;;-16.31;74.87
59375;BME280;45172;55.006;73.460;2022-12-07T12:06:54;102853.22;;;-16.27;75.29
59375;BME280;45172;55.006;73.460;2022-12-07T12:23:05;102848.56;;;-16.29;76.25
59375;BME280;45172;55.006;73.460;2022-12-07T12:25:40;102835.13;;;-16.34;76.23
59375;BME280;45172;55.006;73.460;2022-12-07T12:28:20;102847.72;;;-16.24;76.85
59375;BME280;45172;55.006;73.460;2022-12-07T12:33:53;102822.81;;;-16.42;76.88
59375;BME280;45172;55.006;73.460;2022-12-07T12:48:37;102851.47;;;-16.38;76.64
59375;BME280;45172;55.006;73.460;2022-12-07T12:55:44;102856.50;;;-16.59;77.34
59375;BME280;45172;55.006;73.460;2022-12-07T13:06:41;102836.34;;;-16.84;77.46
59375;BME280;45172;55.006;73.460;2022-12-07T13:13:31;102847.06;;;-16.91;77.24
59375;BME280;45172;55.006;73.460;2022-12-07T13:37:31;102840.78;;;-17.30;78.72
59375;BME280;45172;55.006;73.460;2022-12-07T13:40:00;102848.38;;;-17.30;79.38
59375;BME280;45172;55.006;73.460;2022-12-07T13:42:35;102844.56;;;-17.38;80.04
59375;BME280;45172;55.006;73.460;2022-12-07T13:45:27;102844.16;;;-17.35;79.36
59375;BME280;45172;55.006;73.460;2022-12-07T13:48:28;102850.03;;;-17.40;79.93
59375;BME280;45172;55.006;73.460;2022-12-07T13:50:59;102848.09;;;-17.47;80.02
59375;BME280;45172;55.006;73.460;2022-12-07T13:53:25;102800.19;;;-17.77;79.88
59375;BME280;45172;55.006;73.460;2022-12-07T13:56:00;102840.56;;;-17.57;80.12
59375;BME280;45172;55.006;73.460;2022-12-07T13:58:30;102846.72;;;-17.60;80.11
59375;BME280;45172;55.006;73.460;2022-12-07T14:01:06;102838.53;;;-17.69;80.42
59375;BME280;45172;55.006;73.460;2022-12-07T14:03:35;102831.16;;;-17.68;80.30
59375;BME280;45172;55.006;73.460;2022-12-07T14:06:23;102833.28;;;-17.65;80.79
59375;BME280;45172;55.006;73.460;2022-12-07T14:09:21;102833.06;;;-17.67;80.36
59375;BME280;45172;55.006;73.460;2022-12-07T14:11:50;102835.06;;;-17.70;80.40
59375;BME280;45172;55.006;73.460;2022-12-07T14:14:24;102815.84;;;-17.89;81.03
59375;BME280;45172;55.006;73.460;2022-12-07T14:17:11;102833.09;;;-17.77;80.97
59375;BME280;45172;55.006;73.460;2022-12-07T14:24:46;102811.78;;;-17.98;80.93
59375;BME280;45172;55.006;73.460;2022-12-07T14:27:23;102831.31;;;-17.87;80.92
59375;BME280;45172;55.006;73.460;2022-12-07T14:30:03;102810.19;;;-17.98;80.76
59375;BME280;45172;55.006;73.460;2022-12-07T14:32:30;102794.97;;;-18.13;80.80
59375;BME280;45172;55.006;73.460;2022-12-07T14:35:09;102842.13;;;-17.88;81.00
59375;BME280;45172;55.006;73.460;2022-12-07T14:37:43;102834.66;;;-17.93;81.33
59375;BME280;45172;55.006;73.460;2022-12-07T14:40:15;102828.00;;;-17.92;80.86
59375;BME280;45172;55.006;73.460;2022-12-07T14:42:43;102831.22;;;-17.93;80.79
59375;BME280;45172;55.006;73.460;2022-12-07T14:45:15;102830.94;;;-17.95;80.93
59375;BME280;45172;55.006;73.460;2022-12-07T14:47:52;102830.69;;;-17.96;81.35
59375;BME280;45172;55.006;73.460;2022-12-07T14:50:20;102830.19;;;-17.99;80.94
59375;BME280;45172;55.006;73.460;2022-12-07T14:53:10;102819.78;;;-18.01;81.31
59375;BME280;45172;55.006;73.460;2022-12-07T14:55:38;102826.47;;;-18.01;81.05
59375;BME280;45172;55.006;73.460;2022-12-07T14:58:04;102782.13;;;-18.25;81.03
59375;BME280;45172;55.006;73.460;2022-12-07T15:00:30;102771.63;;;-18.32;80.96
59375;BME280;45172;55.006;73.460;2022-12-07T15:02:57;102811.34;;;-18.11;81.21
59375;BME280;45172;55.006;73.460;2022-12-07T15:05:28;102820.25;;;-18.13;81.21
59375;BME280;45172;55.006;73.460;2022-12-07T15:07:54;102809.13;;;-18.20;81.35
59375;BME280;45172;55.006;73.460;2022-12-07T15:10:26;102793.31;;;-18.28;81.80
59375;BME280;45172;55.006;73.460;2022-12-07T15:13:02;102789.75;;;-18.35;81.95
59375;BME280;45172;55.006;73.460;2022-12-07T15:15:57;102815.69;;;-18.26;81.79
59375;BME280;45172;55.006;73.460;2022-12-07T15:18:23;102808.22;;;-18.30;82.06
59375;BME280;45172;55.006;73.460;2022-12-07T15:20:50;102804.53;;;-18.32;82.33
59375;BME280;45172;55.006;73.460;2022-12-07T15:23:17;102804.91;;;-18.35;82.46
59375;BME280;45172;55.006;73.460;2022-12-07T15:25:44;102787.00;;;-18.46;82.50
59375;BME280;45172;55.006;73.460;2022-12-07T15:28:11;102798.56;;;-18.42;82.79
59375;BME280;45172;55.006;73.460;2022-12-07T15:30:38;102800.72;;;-18.40;82.41
59375;BME280;45172;55.006;73.460;2022-12-07T15:33:04;102794.84;;;-18.45;82.50
59375;BME280;45172;55.006;73.460;2022-12-07T15:35:30;102744.53;;;-18.78;82.68
59375;BME280;45172;55.006;73.460;2022-12-07T15:37:57;102790.91;;;-18.58;82.42
59375;BME280;45172;55.006;73.460;2022-12-07T15:40:28;102770.47;;;-18.79;82.20
59375;BME280;45172;55.006;73.460;2022-12-07T15:42:54;102775.00;;;-18.82;82.44
59375;BME280;45172;55.006;73.460;2022-12-07T15:45:20;102788.97;;;-18.75;82.25
59375;BME280;45172;55.006;73.460;2022-12-07T15:47:47;102792.03;;;-18.81;82.64
59375;BME280;45172;55.006;73.460;2022-12-07T15:50:15;102792.31;;;-18.80;82.18
59375;BME280;45172;55.006;73.460;2022-12-07T15:52:42;102800.97;;;-18.83;82.21
59375;BME280;45172;55.006;73.460;2022-12-07T15:55:11;102756.50;;;-19.12;82.48
59375;BME280;45172;55.006;73.460;2022-12-07T15:57:38;102796.72;;;-18.89;82.38
59375;BME280;45172;55.006;73.460;2022-12-07T16:00:13;102772.44;;;-19.08;82.67
59375;BME280;45172;55.006;73.460;2022-12-07T16:02:47;102796.72;;;-18.98;82.41
59375;BME280;45172;55.006;73.460;2022-12-07T16:05:13;102795.75;;;-19.05;82.67
59375;BME280;45172;55.006;73.460;2022-12-07T16:07:40;102780.84;;;-19.13;82.83
59375;BME280;45172;55.006;73.460;2022-12-07T16:10:07;102790.13;;;-19.08;82.92
59375;BME280;45172;55.006;73.460;2022-12-07T16:12:33;102785.91;;;-19.23;82.42
59375;BME280;45172;55.006;73.460;2022-12-07T16:15:05;102792.44;;;-19.19;82.42
59375;BME280;45172;55.006;73.460;2022-12-07T16:17:31;102782.03;;;-19.21;82.33
59375;BME280;45172;55.006;73.460;2022-12-07T16:20:03;102785.09;;;-19.18;82.18
59375;BME280;45172;55.006;73.460;2022-12-07T16:22:35;102789.91;;;-19.19;82.40
59375;BME280;45172;55.006;73.460;2022-12-07T16:25:01;102793.88;;;-19.16;82.32
59375;BME280;45172;55.006;73.460;2022-12-07T16:27:27;102768.91;;;-19.34;82.19
59375;BME280;45172;55.006;73.460;2022-12-07T16:30:03;102794.78;;;-19.15;82.21
59375;BME280;45172;55.006;73.460;2022-12-07T16:32:29;102795.47;;;-19.16;81.93